sensor_id;sensor_type;location;lat;lon;timestamp;P1;durP1;ratioP1;P2;durP2;ratioP2
68256;SDS011;55069;51.568;4.656;2022-11-20T00:00:55;13.55;;;7.93;;
68256;SDS011;55069;51.568;4.656;2022-11-20T00:03:21;14.67;;;8.17;;
68256;SDS011;55069;51.568;4.656;2022-11-20T00:05:47;14.93;;;7.68;;
68256;SDS011;55069;51.568;4.656;2022-11-20T00:08:13;11.80;;;7.57;;
68256;SDS011;55069;51.568;4.656;2022-11-20T00:10:39;15.97;;;7.90;;
68256;SDS011;55069;51.568;4.656;2022-11-20T00:13:05;14.60;;;8.07;;
68256;SDS011;55069;51.568;4.656;2022-11-20T00:15:31;12.98;;;7.90;;
68256;SDS011;55069;51.568;4.656;2022-11-20T00:17:57;13.77;;;7.87;;
68256;SDS011;55069;51.568;4.656;2022-11-20T00:20:22;13.83;;;7.93;;
68256;SDS011;55069;51.568;4.656;2022-11-20T00:22:49;15.60;;;8.63;;
68256;SDS011;55069;51.568;4.656;2022-11-20T00:25:14;11.48;;;7.80;;
68256;SDS011;55069;51.568;4.656;2022-11-20T00:27:40;14.97;;;7.83;;
68256;SDS011;55069;51.568;4.656;2022-11-20T00:30:06;15.30;;;8.07;;
68256;SDS011;55069;51.568;4.656;2022-11-20T00:32:32;14.85;;;8.43;;
68256;SDS011;55069;51.568;4.656;2022-11-20T00:34:57;13.50;;;7.67;;
68256;SDS011;55069;51.568;4.656;2022-11-20T00:37:23;12.53;;;7.40;;
68256;SDS011;55069;51.568;4.656;2022-11-20T00:39:48;13.55;;;7.88;;
68256;SDS011;55069;51.568;4.656;2022-11-20T00:42:14;13.63;;;7.70;;
68256;SDS011;55069;51.568;4.656;2022-11-20T00:44:39;19.00;;;8.20;;
68256;SDS011;55069;51.568;4.656;2022-11-20T00:47:05;12.70;;;7.60;;
68256;SDS011;55069;51.568;4.656;2022-11-20T00:49:30;13.30;;;7.83;;
68256;SDS011;55069;51.568;4.656;2022-11-20T00:51:56;15.65;;;8.07;;
68256;SDS011;55069;51.568;4.656;2022-11-20T00:54:21;12.63;;;8.20;;
68256;SDS011;55069;51.568;4.656;2022-11-20T00:56:46;16.60;;;8.63;;
68256;SDS011;55069;51.568;4.656;2022-11-20T00:59:12;14.10;;;8.10;;
68256;SDS011;55069;51.568;4.656;2022-11-20T01:01:38;16.00;;;8.95;;
68256;SDS011;55069;51.568;4.656;2022-11-20T01:04:03;14.43;;;8.33;;
68256;SDS011;55069;51.568;4.656;2022-11-20T01:06:30;15.63;;;8.32;;
68256;SDS011;55069;51.568;4.656;2022-11-20T01:09:02;14.80;;;8.37;;
68256;SDS011;55069;51.568;4.656;2022-11-20T01:11:33;16.02;;;8.88;;
68256;SDS011;55069;51.568;4.656;2022-11-20T01:14:03;15.43;;;9.80;;
68256;SDS011;55069;51.568;4.656;2022-11-20T01:16:32;15.30;;;8.80;;
68256;SDS011;55069;51.568;4.656;2022-11-20T01:19:02;16.75;;;9.43;;
68256;SDS011;55069;51.568;4.656;2022-11-20T01:21:30;14.52;;;8.90;;
68256;SDS011;55069;51.568;4.656;2022-11-20T01:23:57;13.57;;;7.70;;
68256;SDS011;55069;51.568;4.656;2022-11-20T01:26:25;14.97;;;8.63;;
68256;SDS011;55069;51.568;4.656;2022-11-20T01:28:52;15.20;;;8.48;;
68256;SDS011;55069;51.568;4.656;2022-11-20T01:31:23;14.35;;;8.27;;
68256;SDS011;55069;51.568;4.656;2022-11-20T01:33:54;14.20;;;8.20;;
68256;SDS011;55069;51.568;4.656;2022-11-20T01:36:22;13.77;;;7.80;;
68256;SDS011;55069;51.568;4.656;2022-11-20T01:38:51;14.95;;;9.18;;
68256;SDS011;55069;51.568;4.656;2022-11-20T01:41:18;13.55;;;8.40;;
68256;SDS011;55069;51.568;4.656;2022-11-20T01:44:03;14.55;;;8.02;;
68256;SDS011;55069;51.568;4.656;2022-11-20T01:46:30;13.50;;;8.53;;
68256;SDS011;55069;51.568;4.656;2022-11-20T01:48:59;16.35;;;9.38;;
68256;SDS011;55069;51.568;4.656;2022-11-20T01:51:43;14.40;;;8.73;;
68256;SDS011;55069;51.568;4.656;2022-11-20T01:54:15;14.88;;;8.63;;
68256;SDS011;55069;51.568;4.656;2022-11-20T01:56:44;15.30;;;8.60;;
68256;SDS011;55069;51.568;4.656;2022-11-20T01:59:13;17.50;;;9.45;;
68256;SDS011;55069;51.568;4.656;2022-11-20T02:01:42;16.95;;;8.73;;
68256;SDS011;55069;51.568;4.656;2022-11-20T02:04:07;15.40;;;8.97;;
68256;SDS011;55069;51.568;4.656;2022-11-20T02:09:11;14.95;;;8.93;;
68256;SDS011;55069;51.568;4.656;2022-11-20T02:11:36;14.03;;;8.40;;
68256;SDS011;55069;51.568;4.656;2022-11-20T02:14:02;14.55;;;9.00;;
68256;SDS011;55069;51.568;4.656;2022-11-20T02:16:33;18.67;;;10.43;;
68256;SDS011;55069;51.568;4.656;2022-11-20T02:19:02;14.00;;;7.72;;
68256;SDS011;55069;51.568;4.656;2022-11-20T02:21:35;15.82;;;9.45;;
68256;SDS011;55069;51.568;4.656;2022-11-20T02:24:09;14.17;;;7.87;;
68256;SDS011;55069;51.568;4.656;2022-11-20T02:27:01;15.77;;;8.82;;
68256;SDS011;55069;51.568;4.656;2022-11-20T02:29:40;15.45;;;8.55;;
68256;SDS011;55069;51.568;4.656;2022-11-20T02:34:46;17.63;;;9.73;;
68256;SDS011;55069;51.568;4.656;2022-11-20T02:37:11;14.52;;;8.52;;
68256;SDS011;55069;51.568;4.656;2022-11-20T02:39:37;14.77;;;8.10;;
68256;SDS011;55069;51.568;4.656;2022-11-20T02:42:03;15.02;;;8.85;;
68256;SDS011;55069;51.568;4.656;2022-11-20T02:44:29;12.73;;;8.30;;
68256;SDS011;55069;51.568;4.656;2022-11-20T02:46:56;14.47;;;9.20;;
68256;SDS011;55069;51.568;4.656;2022-11-20T02:49:23;15.43;;;9.02;;
68256;SDS011;55069;51.568;4.656;2022-11-20T02:51:49;16.13;;;9.90;;
68256;SDS011;55069;51.568;4.656;2022-11-20T02:54:14;13.95;;;9.02;;
68256;SDS011;55069;51.568;4.656;2022-11-20T02:56:40;15.43;;;8.97;;
68256;SDS011;55069;51.568;4.656;2022-11-20T02:59:05;13.57;;;8.40;;
68256;SDS011;55069;51.568;4.656;2022-11-20T03:01:31;17.35;;;9.23;;
68256;SDS011;55069;51.568;4.656;2022-11-20T03:03:57;15.50;;;9.37;;
68256;SDS011;55069;51.568;4.656;2022-11-20T03:06:22;15.93;;;9.37;;
68256;SDS011;55069;51.568;4.656;2022-11-20T03:08:49;17.13;;;10.20;;
68256;SDS011;55069;51.568;4.656;2022-11-20T03:11:14;16.03;;;9.03;;
68256;SDS011;55069;51.568;4.656;2022-11-20T03:13:40;15.80;;;9.07;;
68256;SDS011;55069;51.568;4.656;2022-11-20T03:16:06;16.77;;;9.88;;
68256;SDS011;55069;51.568;4.656;2022-11-20T03:18:37;16.25;;;9.38;;
68256;SDS011;55069;51.568;4.656;2022-11-20T03:21:03;18.75;;;10.20;;
68256;SDS011;55069;51.568;4.656;2022-11-20T03:23:30;15.27;;;9.43;;
68256;SDS011;55069;51.568;4.656;2022-11-20T03:26:07;13.90;;;9.15;;
68256;SDS011;55069;51.568;4.656;2022-11-20T03:28:48;15.50;;;9.30;;
68256;SDS011;55069;51.568;4.656;2022-11-20T03:31:15;16.42;;;9.77;;
68256;SDS011;55069;51.568;4.656;2022-11-20T03:33:42;14.85;;;10.23;;
68256;SDS011;55069;51.568;4.656;2022-11-20T03:36:09;15.88;;;9.55;;
68256;SDS011;55069;51.568;4.656;2022-11-20T03:38:37;16.30;;;9.68;;
68256;SDS011;55069;51.568;4.656;2022-11-20T03:41:09;16.38;;;9.70;;
68256;SDS011;55069;51.568;4.656;2022-11-20T03:43:36;16.77;;;9.88;;
68256;SDS011;55069;51.568;4.656;2022-11-20T03:46:02;16.20;;;9.20;;
68256;SDS011;55069;51.568;4.656;2022-11-20T03:48:28;17.63;;;10.02;;
68256;SDS011;55069;51.568;4.656;2022-11-20T03:51:07;17.83;;;10.33;;
68256;SDS011;55069;51.568;4.656;2022-11-20T03:53:44;14.00;;;9.05;;
68256;SDS011;55069;51.568;4.656;2022-11-20T03:56:10;16.48;;;9.82;;
68256;SDS011;55069;51.568;4.656;2022-11-20T03:58:38;14.40;;;8.70;;
68256;SDS011;55069;51.568;4.656;2022-11-20T04:01:15;15.13;;;9.10;;
68256;SDS011;55069;51.568;4.656;2022-11-20T04:03:43;14.90;;;9.70;;
68256;SDS011;55069;51.568;4.656;2022-11-20T04:08:39;18.40;;;10.07;;
68256;SDS011;55069;51.568;4.656;2022-11-20T04:13:35;14.90;;;9.68;;
68256;SDS011;55069;51.568;4.656;2022-11-20T04:16:01;17.77;;;11.02;;
68256;SDS011;55069;51.568;4.656;2022-11-20T04:18:26;17.03;;;9.57;;
68256;SDS011;55069;51.568;4.656;2022-11-20T04:20:51;17.87;;;10.00;;
68256;SDS011;55069;51.568;4.656;2022-11-20T04:23:17;20.27;;;10.63;;
68256;SDS011;55069;51.568;4.656;2022-11-20T04:25:42;17.23;;;10.57;;
68256;SDS011;55069;51.568;4.656;2022-11-20T04:28:08;17.07;;;10.10;;
68256;SDS011;55069;51.568;4.656;2022-11-20T04:30:34;16.80;;;10.00;;
68256;SDS011;55069;51.568;4.656;2022-11-20T04:32:59;16.83;;;9.57;;
68256;SDS011;55069;51.568;4.656;2022-11-20T04:35:25;17.37;;;10.33;;
68256;SDS011;55069;51.568;4.656;2022-11-20T04:37:51;15.97;;;9.73;;
68256;SDS011;55069;51.568;4.656;2022-11-20T04:40:17;17.88;;;9.98;;
68256;SDS011;55069;51.568;4.656;2022-11-20T04:42:42;16.43;;;10.13;;
68256;SDS011;55069;51.568;4.656;2022-11-20T04:45:08;17.77;;;10.63;;
68256;SDS011;55069;51.568;4.656;2022-11-20T04:47:33;20.80;;;10.02;;
68256;SDS011;55069;51.568;4.656;2022-11-20T04:49:59;15.57;;;9.67;;
68256;SDS011;55069;51.568;4.656;2022-11-20T04:52:24;17.27;;;10.93;;
68256;SDS011;55069;51.568;4.656;2022-11-20T04:54:50;15.67;;;9.43;;
68256;SDS011;55069;51.568;4.656;2022-11-20T04:57:18;17.40;;;9.32;;
68256;SDS011;55069;51.568;4.656;2022-11-20T04:59:44;16.77;;;9.73;;
68256;SDS011;55069;51.568;4.656;2022-11-20T05:02:10;20.63;;;10.47;;
68256;SDS011;55069;51.568;4.656;2022-11-20T05:04:35;20.63;;;9.98;;
68256;SDS011;55069;51.568;4.656;2022-11-20T05:07:01;16.37;;;9.97;;
68256;SDS011;55069;51.568;4.656;2022-11-20T05:09:26;17.17;;;10.10;;
68256;SDS011;55069;51.568;4.656;2022-11-20T05:11:52;15.68;;;10.32;;
68256;SDS011;55069;51.568;4.656;2022-11-20T05:14:17;18.77;;;9.60;;
68256;SDS011;55069;51.568;4.656;2022-11-20T05:16:43;16.40;;;9.97;;
68256;SDS011;55069;51.568;4.656;2022-11-20T05:19:08;16.33;;;10.23;;
68256;SDS011;55069;51.568;4.656;2022-11-20T05:21:34;14.83;;;9.47;;
68256;SDS011;55069;51.568;4.656;2022-11-20T05:23:59;18.27;;;10.23;;
68256;SDS011;55069;51.568;4.656;2022-11-20T05:26:25;15.90;;;9.07;;
68256;SDS011;55069;51.568;4.656;2022-11-20T05:28:50;15.60;;;9.90;;
68256;SDS011;55069;51.568;4.656;2022-11-20T05:31:17;15.63;;;9.82;;
68256;SDS011;55069;51.568;4.656;2022-11-20T05:33:44;16.73;;;10.18;;
68256;SDS011;55069;51.568;4.656;2022-11-20T05:36:11;19.05;;;10.48;;
68256;SDS011;55069;51.568;4.656;2022-11-20T05:38:38;18.02;;;10.85;;
68256;SDS011;55069;51.568;4.656;2022-11-20T05:41:05;18.48;;;10.55;;
68256;SDS011;55069;51.568;4.656;2022-11-20T05:43:32;17.53;;;10.23;;
68256;SDS011;55069;51.568;4.656;2022-11-20T05:45:59;16.75;;;10.90;;
68256;SDS011;55069;51.568;4.656;2022-11-20T05:48:24;19.23;;;10.43;;
68256;SDS011;55069;51.568;4.656;2022-11-20T05:50:50;18.35;;;10.32;;
68256;SDS011;55069;51.568;4.656;2022-11-20T05:53:15;19.87;;;10.70;;
68256;SDS011;55069;51.568;4.656;2022-11-20T05:55:41;18.90;;;11.00;;
68256;SDS011;55069;51.568;4.656;2022-11-20T05:58:06;15.85;;;10.52;;
68256;SDS011;55069;51.568;4.656;2022-11-20T06:00:32;16.27;;;9.87;;
68256;SDS011;55069;51.568;4.656;2022-11-20T06:02:57;16.97;;;10.30;;
68256;SDS011;55069;51.568;4.656;2022-11-20T06:05:23;15.97;;;10.63;;
68256;SDS011;55069;51.568;4.656;2022-11-20T06:07:48;15.82;;;10.00;;
68256;SDS011;55069;51.568;4.656;2022-11-20T06:10:14;17.53;;;9.20;;
68256;SDS011;55069;51.568;4.656;2022-11-20T06:12:39;20.87;;;10.03;;
68256;SDS011;55069;51.568;4.656;2022-11-20T06:15:05;17.73;;;10.73;;
68256;SDS011;55069;51.568;4.656;2022-11-20T06:17:31;17.02;;;10.63;;
68256;SDS011;55069;51.568;4.656;2022-11-20T06:19:56;16.30;;;10.27;;
68256;SDS011;55069;51.568;4.656;2022-11-20T06:22:22;18.90;;;11.13;;
68256;SDS011;55069;51.568;4.656;2022-11-20T06:24:47;18.10;;;10.48;;
68256;SDS011;55069;51.568;4.656;2022-11-20T06:27:13;17.33;;;10.23;;
68256;SDS011;55069;51.568;4.656;2022-11-20T06:29:38;20.13;;;10.97;;
68256;SDS011;55069;51.568;4.656;2022-11-20T06:32:04;18.50;;;10.75;;
68256;SDS011;55069;51.568;4.656;2022-11-20T06:34:29;16.70;;;9.73;;
68256;SDS011;55069;51.568;4.656;2022-11-20T06:36:55;17.67;;;10.60;;
68256;SDS011;55069;51.568;4.656;2022-11-20T06:39:20;17.33;;;10.37;;
68256;SDS011;55069;51.568;4.656;2022-11-20T06:41:46;21.20;;;11.33;;
68256;SDS011;55069;51.568;4.656;2022-11-20T06:44:11;16.63;;;10.18;;
68256;SDS011;55069;51.568;4.656;2022-11-20T06:46:37;19.43;;;11.03;;
68256;SDS011;55069;51.568;4.656;2022-11-20T06:49:02;17.60;;;11.00;;
68256;SDS011;55069;51.568;4.656;2022-11-20T06:51:28;20.27;;;11.05;;
68256;SDS011;55069;51.568;4.656;2022-11-20T06:53:53;18.33;;;10.60;;
68256;SDS011;55069;51.568;4.656;2022-11-20T06:56:19;20.63;;;11.23;;
68256;SDS011;55069;51.568;4.656;2022-11-20T06:58:45;21.48;;;10.55;;
68256;SDS011;55069;51.568;4.656;2022-11-20T07:01:12;18.27;;;10.60;;
68256;SDS011;55069;51.568;4.656;2022-11-20T07:03:38;16.83;;;10.95;;
68256;SDS011;55069;51.568;4.656;2022-11-20T07:06:04;17.30;;;10.10;;
68256;SDS011;55069;51.568;4.656;2022-11-20T07:08:31;18.77;;;10.90;;
68256;SDS011;55069;51.568;4.656;2022-11-20T07:10:58;19.95;;;11.52;;
68256;SDS011;55069;51.568;4.656;2022-11-20T07:13:25;18.73;;;11.63;;
68256;SDS011;55069;51.568;4.656;2022-11-20T07:15:51;25.55;;;11.88;;
68256;SDS011;55069;51.568;4.656;2022-11-20T07:18:16;18.65;;;11.93;;
68256;SDS011;55069;51.568;4.656;2022-11-20T07:20:42;19.90;;;11.57;;
68256;SDS011;55069;51.568;4.656;2022-11-20T07:23:07;17.87;;;10.83;;
68256;SDS011;55069;51.568;4.656;2022-11-20T07:25:33;19.33;;;11.53;;
68256;SDS011;55069;51.568;4.656;2022-11-20T07:27:59;21.40;;;11.50;;
68256;SDS011;55069;51.568;4.656;2022-11-20T07:30:28;19.50;;;11.85;;
68256;SDS011;55069;51.568;4.656;2022-11-20T07:32:54;20.25;;;11.52;;
68256;SDS011;55069;51.568;4.656;2022-11-20T07:35:21;18.65;;;10.90;;
68256;SDS011;55069;51.568;4.656;2022-11-20T07:37:47;17.97;;;10.97;;
68256;SDS011;55069;51.568;4.656;2022-11-20T07:40:14;20.38;;;12.02;;
68256;SDS011;55069;51.568;4.656;2022-11-20T07:42:50;21.17;;;12.00;;
68256;SDS011;55069;51.568;4.656;2022-11-20T07:45:16;18.95;;;11.50;;
68256;SDS011;55069;51.568;4.656;2022-11-20T07:47:43;19.77;;;11.37;;
68256;SDS011;55069;51.568;4.656;2022-11-20T07:50:09;20.40;;;12.18;;
68256;SDS011;55069;51.568;4.656;2022-11-20T07:52:35;23.00;;;12.73;;
68256;SDS011;55069;51.568;4.656;2022-11-20T07:55:00;23.38;;;12.65;;
68256;SDS011;55069;51.568;4.656;2022-11-20T07:57:26;20.27;;;12.67;;
68256;SDS011;55069;51.568;4.656;2022-11-20T07:59:51;22.30;;;12.90;;
68256;SDS011;55069;51.568;4.656;2022-11-20T08:02:17;24.60;;;12.77;;
68256;SDS011;55069;51.568;4.656;2022-11-20T08:04:42;20.20;;;13.37;;
68256;SDS011;55069;51.568;4.656;2022-11-20T08:07:07;21.52;;;12.48;;
68256;SDS011;55069;51.568;4.656;2022-11-20T08:09:33;22.27;;;12.27;;
68256;SDS011;55069;51.568;4.656;2022-11-20T08:11:58;20.03;;;12.37;;
68256;SDS011;55069;51.568;4.656;2022-11-20T08:14:42;20.92;;;12.35;;
68256;SDS011;55069;51.568;4.656;2022-11-20T08:17:08;23.37;;;12.80;;
68256;SDS011;55069;51.568;4.656;2022-11-20T08:19:33;23.20;;;12.37;;
68256;SDS011;55069;51.568;4.656;2022-11-20T08:21:59;21.57;;;12.67;;
68256;SDS011;55069;51.568;4.656;2022-11-20T08:24:24;23.90;;;13.10;;
68256;SDS011;55069;51.568;4.656;2022-11-20T08:26:51;21.80;;;12.90;;
68256;SDS011;55069;51.568;4.656;2022-11-20T08:29:17;21.83;;;13.18;;
68256;SDS011;55069;51.568;4.656;2022-11-20T08:31:42;24.27;;;13.93;;
68256;SDS011;55069;51.568;4.656;2022-11-20T08:34:08;21.60;;;12.30;;
68256;SDS011;55069;51.568;4.656;2022-11-20T08:36:34;23.10;;;13.03;;
68256;SDS011;55069;51.568;4.656;2022-11-20T08:39:00;21.80;;;12.85;;
68256;SDS011;55069;51.568;4.656;2022-11-20T08:41:25;26.47;;;14.20;;
68256;SDS011;55069;51.568;4.656;2022-11-20T08:43:56;25.42;;;13.93;;
68256;SDS011;55069;51.568;4.656;2022-11-20T08:46:24;25.60;;;14.48;;
68256;SDS011;55069;51.568;4.656;2022-11-20T08:48:51;24.13;;;14.03;;
68256;SDS011;55069;51.568;4.656;2022-11-20T08:51:17;27.40;;;14.85;;
68256;SDS011;55069;51.568;4.656;2022-11-20T08:53:43;27.08;;;13.80;;
68256;SDS011;55069;51.568;4.656;2022-11-20T08:56:08;25.37;;;13.67;;
68256;SDS011;55069;51.568;4.656;2022-11-20T08:58:37;25.15;;;14.25;;
68256;SDS011;55069;51.568;4.656;2022-11-20T09:01:03;32.25;;;14.98;;
68256;SDS011;55069;51.568;4.656;2022-11-20T09:03:29;31.43;;;15.67;;
68256;SDS011;55069;51.568;4.656;2022-11-20T09:06:02;30.73;;;16.38;;
68256;SDS011;55069;51.568;4.656;2022-11-20T09:08:29;27.03;;;16.33;;
68256;SDS011;55069;51.568;4.656;2022-11-20T09:10:56;31.27;;;16.23;;
68256;SDS011;55069;51.568;4.656;2022-11-20T09:13:22;30.63;;;15.65;;
68256;SDS011;55069;51.568;4.656;2022-11-20T09:15:55;30.70;;;14.60;;
68256;SDS011;55069;51.568;4.656;2022-11-20T09:18:21;27.58;;;15.23;;
68256;SDS011;55069;51.568;4.656;2022-11-20T09:20:47;37.90;;;17.27;;
68256;SDS011;55069;51.568;4.656;2022-11-20T09:23:14;31.48;;;16.67;;
68256;SDS011;55069;51.568;4.656;2022-11-20T09:25:39;32.00;;;17.73;;
68256;SDS011;55069;51.568;4.656;2022-11-20T09:28:05;34.53;;;18.23;;
68256;SDS011;55069;51.568;4.656;2022-11-20T09:30:30;28.87;;;17.00;;
68256;SDS011;55069;51.568;4.656;2022-11-20T09:32:56;31.90;;;17.53;;
68256;SDS011;55069;51.568;4.656;2022-11-20T09:35:21;34.40;;;17.77;;
68256;SDS011;55069;51.568;4.656;2022-11-20T09:37:47;32.87;;;17.60;;
68256;SDS011;55069;51.568;4.656;2022-11-20T09:40:22;37.53;;;17.77;;
68256;SDS011;55069;51.568;4.656;2022-11-20T09:54:22;32.43;;;18.07;;
68256;SDS011;55069;51.568;4.656;2022-11-20T09:57:01;34.03;;;17.90;;
68256;SDS011;55069;51.568;4.656;2022-11-20T09:59:38;34.97;;;17.23;;
68256;SDS011;55069;51.568;4.656;2022-11-20T10:02:16;30.05;;;16.55;;
68256;SDS011;55069;51.568;4.656;2022-11-20T10:05:03;32.08;;;17.35;;
68256;SDS011;55069;51.568;4.656;2022-11-20T10:07:42;33.43;;;17.37;;
68256;SDS011;55069;51.568;4.656;2022-11-20T10:10:16;34.58;;;17.30;;
68256;SDS011;55069;51.568;4.656;2022-11-20T10:21:06;35.90;;;18.13;;
68256;SDS011;55069;51.568;4.656;2022-11-20T10:23:56;38.47;;;19.55;;
68256;SDS011;55069;51.568;4.656;2022-11-20T10:26:28;40.33;;;19.90;;
68256;SDS011;55069;51.568;4.656;2022-11-20T10:29:01;36.53;;;18.30;;
68256;SDS011;55069;51.568;4.656;2022-11-20T10:31:41;42.65;;;20.63;;
68256;SDS011;55069;51.568;4.656;2022-11-20T10:34:20;36.43;;;19.87;;
68256;SDS011;55069;51.568;4.656;2022-11-20T10:42:51;45.72;;;21.27;;
68256;SDS011;55069;51.568;4.656;2022-11-20T10:47:53;39.53;;;21.10;;
68256;SDS011;55069;51.568;4.656;2022-11-20T10:50:26;38.72;;;19.50;;
68256;SDS011;55069;51.568;4.656;2022-11-20T10:53:00;41.67;;;19.20;;
68256;SDS011;55069;51.568;4.656;2022-11-20T10:55:45;45.53;;;20.88;;
68256;SDS011;55069;51.568;4.656;2022-11-20T11:01:15;41.70;;;19.90;;
68256;SDS011;55069;51.568;4.656;2022-11-20T11:03:47;41.17;;;20.48;;
68256;SDS011;55069;51.568;4.656;2022-11-20T11:08:58;42.90;;;20.17;;
68256;SDS011;55069;51.568;4.656;2022-11-20T11:11:30;40.70;;;19.77;;
68256;SDS011;55069;51.568;4.656;2022-11-20T11:14:07;44.30;;;20.42;;
68256;SDS011;55069;51.568;4.656;2022-11-20T11:16:48;44.47;;;21.50;;
68256;SDS011;55069;51.568;4.656;2022-11-20T11:19:15;47.33;;;21.90;;
68256;SDS011;55069;51.568;4.656;2022-11-20T11:21:54;46.90;;;21.70;;
68256;SDS011;55069;51.568;4.656;2022-11-20T11:24:30;52.20;;;21.67;;
68256;SDS011;55069;51.568;4.656;2022-11-20T11:26:57;45.17;;;21.23;;
68256;SDS011;55069;51.568;4.656;2022-11-20T11:29:32;43.75;;;20.83;;
68256;SDS011;55069;51.568;4.656;2022-11-20T11:32:08;50.03;;;21.58;;
68256;SDS011;55069;51.568;4.656;2022-11-20T11:34:38;48.88;;;22.50;;
68256;SDS011;55069;51.568;4.656;2022-11-20T11:37:04;51.40;;;23.73;;
68256;SDS011;55069;51.568;4.656;2022-11-20T11:39:40;51.92;;;23.10;;
68256;SDS011;55069;51.568;4.656;2022-11-20T11:42:08;50.90;;;23.17;;
68256;SDS011;55069;51.568;4.656;2022-11-20T11:44:43;52.65;;;23.15;;
68256;SDS011;55069;51.568;4.656;2022-11-20T11:47:37;56.42;;;23.40;;
68256;SDS011;55069;51.568;4.656;2022-11-20T11:52:48;51.72;;;22.75;;
68256;SDS011;55069;51.568;4.656;2022-11-20T12:01:37;55.65;;;24.92;;
68256;SDS011;55069;51.568;4.656;2022-11-20T12:06:55;54.47;;;25.08;;
68256;SDS011;55069;51.568;4.656;2022-11-20T12:09:28;52.03;;;23.13;;
68256;SDS011;55069;51.568;4.656;2022-11-20T12:12:04;52.90;;;22.75;;
68256;SDS011;55069;51.568;4.656;2022-11-20T12:14:39;53.35;;;24.10;;
68256;SDS011;55069;51.568;4.656;2022-11-20T12:17:11;58.33;;;24.27;;
68256;SDS011;55069;51.568;4.656;2022-11-20T12:19:38;55.80;;;25.13;;
68256;SDS011;55069;51.568;4.656;2022-11-20T12:22:11;71.28;;;25.67;;
68256;SDS011;55069;51.568;4.656;2022-11-20T12:32:46;59.37;;;24.63;;
68256;SDS011;55069;51.568;4.656;2022-11-20T12:44:16;67.10;;;25.10;;
68256;SDS011;55069;51.568;4.656;2022-11-20T12:47:19;62.25;;;23.88;;
68256;SDS011;55069;51.568;4.656;2022-11-20T12:50:06;59.53;;;25.90;;
68256;SDS011;55069;51.568;4.656;2022-11-20T13:00:43;64.20;;;25.50;;
68256;SDS011;55069;51.568;4.656;2022-11-20T13:03:31;52.45;;;23.80;;
68256;SDS011;55069;51.568;4.656;2022-11-20T13:08:43;58.88;;;24.55;;
68256;SDS011;55069;51.568;4.656;2022-11-20T13:19:03;59.17;;;23.80;;
68256;SDS011;55069;51.568;4.656;2022-11-20T13:21:37;64.72;;;25.40;;
68256;SDS011;55069;51.568;4.656;2022-11-20T13:24:19;64.38;;;25.52;;
68256;SDS011;55069;51.568;4.656;2022-11-20T13:26:48;63.47;;;26.80;;
68256;SDS011;55069;51.568;4.656;2022-11-20T13:29:28;67.40;;;25.33;;
68256;SDS011;55069;51.568;4.656;2022-11-20T13:32:02;66.78;;;25.63;;
68256;SDS011;55069;51.568;4.656;2022-11-20T13:34:53;117.90;;;33.08;;
68256;SDS011;55069;51.568;4.656;2022-11-20T13:37:28;121.85;;;34.05;;
68256;SDS011;55069;51.568;4.656;2022-11-20T13:42:54;77.13;;;26.73;;
68256;SDS011;55069;51.568;4.656;2022-11-20T13:45:23;79.10;;;27.63;;
68256;SDS011;55069;51.568;4.656;2022-11-20T13:47:51;73.25;;;27.45;;
68256;SDS011;55069;51.568;4.656;2022-11-20T13:50:18;70.68;;;25.25;;
68256;SDS011;55069;51.568;4.656;2022-11-20T13:52:58;68.53;;;25.88;;
68256;SDS011;55069;51.568;4.656;2022-11-20T13:55:40;70.90;;;27.13;;
68256;SDS011;55069;51.568;4.656;2022-11-20T14:01:09;73.10;;;25.23;;
68256;SDS011;55069;51.568;4.656;2022-11-20T14:03:40;69.85;;;25.15;;
68256;SDS011;55069;51.568;4.656;2022-11-20T14:06:11;72.55;;;25.45;;
68256;SDS011;55069;51.568;4.656;2022-11-20T14:08:41;67.40;;;24.83;;
68256;SDS011;55069;51.568;4.656;2022-11-20T14:11:24;86.07;;;25.98;;
68256;SDS011;55069;51.568;4.656;2022-11-20T14:16:19;74.53;;;25.03;;
68256;SDS011;55069;51.568;4.656;2022-11-20T14:18:45;74.38;;;24.88;;
68256;SDS011;55069;51.568;4.656;2022-11-20T14:21:11;64.80;;;24.00;;
68256;SDS011;55069;51.568;4.656;2022-11-20T14:23:36;78.40;;;25.02;;
68256;SDS011;55069;51.568;4.656;2022-11-20T14:26:03;65.00;;;24.43;;
68256;SDS011;55069;51.568;4.656;2022-11-20T14:28:29;70.28;;;24.33;;
68256;SDS011;55069;51.568;4.656;2022-11-20T14:30:56;66.40;;;24.35;;
68256;SDS011;55069;51.568;4.656;2022-11-20T14:33:23;63.97;;;22.30;;
68256;SDS011;55069;51.568;4.656;2022-11-20T14:35:51;65.95;;;22.95;;
68256;SDS011;55069;51.568;4.656;2022-11-20T14:38:24;75.03;;;24.83;;
68256;SDS011;55069;51.568;4.656;2022-11-20T14:40:51;64.60;;;23.73;;
68256;SDS011;55069;51.568;4.656;2022-11-20T14:43:20;59.20;;;22.37;;
68256;SDS011;55069;51.568;4.656;2022-11-20T14:45:57;60.45;;;21.55;;
68256;SDS011;55069;51.568;4.656;2022-11-20T14:48:29;53.80;;;20.13;;
68256;SDS011;55069;51.568;4.656;2022-11-20T14:50:59;66.03;;;20.52;;
68256;SDS011;55069;51.568;4.656;2022-11-20T14:53:25;50.73;;;19.93;;
68256;SDS011;55069;51.568;4.656;2022-11-20T14:56:00;59.03;;;21.17;;
68256;SDS011;55069;51.568;4.656;2022-11-20T14:58:30;59.58;;;19.45;;
68256;SDS011;55069;51.568;4.656;2022-11-20T15:01:05;58.33;;;19.38;;
68256;SDS011;55069;51.568;4.656;2022-11-20T15:03:37;47.53;;;19.03;;
68256;SDS011;55069;51.568;4.656;2022-11-20T15:06:04;40.92;;;16.80;;
68256;SDS011;55069;51.568;4.656;2022-11-20T15:08:35;45.00;;;17.10;;
68256;SDS011;55069;51.568;4.656;2022-11-20T15:11:01;42.08;;;15.82;;
68256;SDS011;55069;51.568;4.656;2022-11-20T15:13:37;43.63;;;14.93;;
68256;SDS011;55069;51.568;4.656;2022-11-20T15:16:12;35.92;;;14.05;;
68256;SDS011;55069;51.568;4.656;2022-11-20T15:18:43;29.40;;;12.90;;
68256;SDS011;55069;51.568;4.656;2022-11-20T15:21:10;26.90;;;11.73;;
68256;SDS011;55069;51.568;4.656;2022-11-20T15:23:37;23.70;;;10.77;;
68256;SDS011;55069;51.568;4.656;2022-11-20T15:26:06;26.63;;;10.60;;
68256;SDS011;55069;51.568;4.656;2022-11-20T15:28:37;22.45;;;9.30;;
68256;SDS011;55069;51.568;4.656;2022-11-20T15:31:05;18.87;;;9.50;;
68256;SDS011;55069;51.568;4.656;2022-11-20T15:33:31;17.83;;;8.63;;
68256;SDS011;55069;51.568;4.656;2022-11-20T15:35:57;18.83;;;7.40;;
68256;SDS011;55069;51.568;4.656;2022-11-20T15:38:23;15.53;;;6.77;;
68256;SDS011;55069;51.568;4.656;2022-11-20T15:40:48;13.37;;;6.53;;
68256;SDS011;55069;51.568;4.656;2022-11-20T15:43:14;13.23;;;6.40;;
68256;SDS011;55069;51.568;4.656;2022-11-20T15:45:44;10.33;;;6.50;;
68256;SDS011;55069;51.568;4.656;2022-11-20T15:48:21;11.55;;;6.80;;
68256;SDS011;55069;51.568;4.656;2022-11-20T15:53:39;10.27;;;6.28;;
68256;SDS011;55069;51.568;4.656;2022-11-20T15:56:07;10.13;;;6.85;;
68256;SDS011;55069;51.568;4.656;2022-11-20T15:58:36;9.50;;;6.97;;
68256;SDS011;55069;51.568;4.656;2022-11-20T16:01:02;10.50;;;7.78;;
68256;SDS011;55069;51.568;4.656;2022-11-20T16:03:27;11.43;;;8.07;;
68256;SDS011;55069;51.568;4.656;2022-11-20T16:05:53;11.53;;;8.50;;
68256;SDS011;55069;51.568;4.656;2022-11-20T16:08:18;11.18;;;8.00;;
68256;SDS011;55069;51.568;4.656;2022-11-20T16:10:44;14.35;;;8.60;;
68256;SDS011;55069;51.568;4.656;2022-11-20T16:13:16;14.93;;;9.37;;
68256;SDS011;55069;51.568;4.656;2022-11-20T16:16:02;16.35;;;10.88;;
68256;SDS011;55069;51.568;4.656;2022-11-20T16:18:30;15.82;;;11.65;;